createdAt,value
2018-05-11T00:00:33.778Z,7.70
2018-05-11T00:03:05.203Z,7.80
2018-05-11T00:05:32.445Z,7.70
2018-05-11T00:07:59.498Z,7.70
2018-05-11T00:10:27.470Z,7.60
2018-05-11T00:12:54.730Z,7.60
2018-05-11T00:15:23.422Z,7.70
2018-05-11T00:17:51.192Z,7.70
2018-05-11T00:20:22.566Z,7.60
2018-05-11T00:22:49.506Z,7.50
2018-05-11T00:25:16.649Z,7.60
2018-05-11T00:27:44.018Z,7.60
2018-05-11T00:30:12.906Z,7.70
2018-05-11T00:32:40.669Z,7.70
2018-05-11T00:35:07.934Z,7.80
2018-05-11T00:37:36.010Z,7.80
2018-05-11T00:40:03.270Z,8.00
2018-05-11T00:42:31.956Z,7.90
2018-05-11T00:44:59.323Z,7.80
2018-05-11T00:47:26.990Z,7.80
2018-05-11T00:49:54.660Z,7.70
2018-05-11T00:52:22.225Z,7.80
2018-05-11T00:54:50.399Z,7.60
2018-05-11T00:57:17.767Z,7.60
2018-05-11T00:59:45.021Z,7.50
2018-05-11T01:02:13.308Z,7.50
2018-05-11T01:04:40.662Z,7.40
2018-05-11T01:07:09.472Z,7.40
2018-05-11T01:09:36.494Z,7.40
2018-05-11T01:12:04.075Z,7.40
2018-05-11T01:14:31.743Z,7.40
2018-05-11T01:16:59.132Z,7.40
2018-05-11T01:19:26.977Z,7.40
2018-05-11T01:21:54.648Z,7.40
2018-05-11T01:24:21.597Z,7.40
2018-05-11T01:26:48.751Z,7.40
2018-05-11T01:29:15.601Z,7.50
2018-05-11T01:31:43.267Z,7.60
2018-05-11T01:34:10.118Z,7.60
2018-05-11T01:36:37.068Z,7.60
2018-05-11T01:39:05.146Z,7.70
2018-05-11T01:41:32.406Z,7.80
2018-05-11T01:43:59.664Z,8.00
2018-05-11T01:46:27.022Z,8.20
2018-05-11T01:48:54.503Z,8.50
2018-05-11T01:51:22.564Z,8.70
2018-05-11T01:53:49.524Z,8.60
2018-05-11T01:56:16.568Z,8.80
2018-05-11T01:58:43.419Z,8.90
2018-05-11T02:01:10.475Z,9.10
2018-05-11T02:03:45.505Z,9.30
2018-05-11T02:06:13.482Z,9.60
2018-05-11T02:08:40.534Z,9.50
2018-05-11T02:11:08.205Z,9.50
2018-05-11T02:13:35.463Z,9.70
2018-05-11T02:16:03.129Z,9.60
2018-05-11T02:18:31.171Z,9.60
2018-05-11T02:20:59.486Z,9.50
2018-05-11T02:23:28.281Z,9.40
2018-05-11T02:25:55.467Z,9.50
2018-05-11T02:28:24.331Z,9.50
2018-05-11T02:30:53.010Z,9.40
2018-05-11T02:33:20.487Z,9.30
2018-05-11T02:35:49.074Z,9.30
2018-05-11T02:38:15.927Z,9.10
2018-05-11T02:40:43.699Z,9.20
2018-05-11T02:43:12.487Z,9.20
2018-05-11T02:45:39.642Z,9.40
2018-05-11T02:48:06.492Z,9.30
2018-05-11T02:50:33.803Z,9.40
2018-05-11T02:53:01.418Z,9.30
2018-05-11T02:55:28.779Z,9.50
2018-05-11T02:57:56.141Z,9.50
2018-05-11T03:00:24.011Z,9.40
2018-05-11T03:02:51.172Z,9.40
2018-05-11T03:05:18.428Z,9.50
2018-05-11T03:07:45.588Z,9.60
2018-05-11T03:12:44.605Z,9.70
2018-05-11T03:15:11.659Z,9.70
2018-05-11T03:17:39.017Z,9.70
2018-05-11T03:20:06.379Z,9.80
2018-05-11T03:22:34.223Z,9.90
2018-05-11T03:27:33.577Z,10.00
2018-05-11T03:30:02.472Z,10.00
2018-05-11T03:32:31.250Z,10.10
2018-05-11T03:34:58.421Z,10.20
2018-05-11T03:37:25.476Z,10.30
2018-05-11T03:39:53.335Z,10.20
2018-05-11T03:42:20.503Z,10.40
2018-05-11T03:44:49.207Z,10.70
2018-05-11T03:47:16.555Z,10.70
2018-05-11T03:49:43.814Z,10.80
2018-05-11T03:52:11.482Z,11.20
2018-05-11T03:54:39.355Z,11.20
2018-05-11T03:57:07.030Z,11.30
2018-05-11T03:59:34.790Z,11.70
2018-05-11T04:02:15.352Z,13.10
2018-05-11T04:04:54.890Z,13.00
2018-05-11T04:07:34.327Z,13.40
2018-05-11T04:10:01.486Z,14.10
2018-05-11T04:12:29.149Z,14.30
2018-05-11T04:14:56.817Z,14.60
2018-05-11T04:17:23.973Z,14.60
2018-05-11T04:19:51.443Z,15.20
2018-05-11T04:22:19.200Z,15.50
2018-05-11T04:24:46.365Z,16.10
2018-05-11T04:27:14.030Z,16.60
2018-05-11T04:29:41.316Z,16.70
2018-05-11T04:32:08.444Z,16.60
2018-05-11T04:34:37.057Z,16.90
2018-05-11T04:37:04.292Z,17.10
2018-05-11T04:39:32.061Z,17.30
2018-05-11T04:41:59.103Z,16.90
2018-05-11T04:44:27.812Z,16.80
2018-05-11T04:46:55.883Z,18.30
2018-05-11T04:49:22.939Z,18.40
2018-05-11T04:51:50.195Z,20.00
2018-05-11T04:54:17.768Z,21.60
2018-05-11T04:56:45.123Z,23.00
2018-05-11T04:59:12.388Z,24.30
2018-05-11T05:01:39.641Z,24.50
2018-05-11T05:04:08.329Z,24.30
2018-05-11T05:06:35.590Z,25.00
2018-05-11T05:09:04.177Z,24.60
2018-05-11T05:11:31.540Z,24.50
2018-05-11T05:13:58.670Z,25.10
2018-05-11T05:16:25.849Z,25.80
2018-05-11T05:18:53.005Z,26.10
2018-05-11T05:21:21.724Z,25.80
2018-05-11T05:23:49.377Z,26.80
2018-05-11T05:26:17.235Z,26.70
2018-05-11T05:28:44.904Z,26.20
2018-05-11T05:31:13.699Z,27.20
2018-05-11T05:33:44.458Z,27.70
2018-05-11T05:36:11.283Z,27.80
2018-05-11T05:38:39.872Z,28.20
2018-05-11T05:41:09.484Z,28.20
2018-05-11T05:43:37.869Z,27.30
2018-05-11T05:46:05.025Z,27.30
2018-05-11T05:48:31.976Z,27.30
2018-05-11T05:50:59.341Z,27.10
2018-05-11T05:53:29.053Z,27.20
2018-05-11T05:55:56.517Z,27.10
2018-05-11T05:58:24.204Z,28.10
2018-05-11T06:00:51.543Z,29.10
2018-05-11T06:03:18.804Z,30.00
2018-05-11T06:05:47.491Z,27.70
2018-05-11T06:08:14.843Z,27.50
2018-05-11T06:10:43.505Z,27.40
2018-05-11T06:13:12.222Z,26.90
2018-05-11T06:15:40.647Z,27.70
2018-05-11T06:18:08.493Z,29.00
2018-05-11T06:20:35.649Z,29.90
2018-05-11T06:23:02.763Z,30.70
2018-05-11T06:25:29.959Z,30.80
2018-05-11T06:27:57.115Z,30.00
2018-05-11T06:30:25.893Z,30.70
2018-05-11T06:32:53.165Z,30.80
2018-05-11T06:35:21.042Z,29.30
2018-05-11T06:37:48.813Z,30.30
2018-05-11T06:40:15.964Z,30.50
2018-05-11T06:42:43.224Z,30.50
2018-05-11T06:45:10.893Z,30.20
2018-05-11T06:47:38.153Z,30.60
2018-05-11T06:50:05.179Z,29.10
2018-05-11T06:52:33.278Z,29.80
2018-05-11T06:55:01.051Z,30.20
2018-05-11T06:57:28.307Z,31.80
2018-05-11T06:59:55.463Z,31.60
2018-05-11T07:02:22.619Z,31.80
2018-05-11T07:04:49.774Z,32.20
2018-05-11T07:07:18.631Z,32.80
2018-05-11T07:09:47.365Z,31.10
2018-05-11T07:12:16.283Z,30.40
2018-05-11T07:14:43.520Z,30.40
2018-05-11T07:17:10.366Z,29.20
2018-05-11T07:19:37.418Z,29.10
2018-05-11T07:24:37.670Z,30.70
2018-05-11T07:27:05.026Z,30.60
2018-05-11T07:29:32.386Z,30.20
2018-05-11T07:31:59.237Z,30.10
2018-05-11T07:34:26.198Z,31.50
2018-05-11T07:36:55.185Z,32.20
2018-05-11T07:39:22.249Z,30.90
2018-05-11T07:41:49.364Z,31.80
2018-05-11T07:44:16.655Z,34.00
2018-05-11T07:46:43.918Z,32.00
2018-05-11T07:49:11.275Z,32.90
2018-05-11T07:51:39.550Z,31.70
2018-05-11T07:54:07.937Z,33.90
2018-05-11T07:56:35.608Z,33.90
2018-05-11T07:59:02.564Z,32.90
2018-05-11T08:01:29.508Z,31.40
2018-05-11T08:03:58.351Z,30.90
2018-05-11T08:06:25.867Z,30.20
2018-05-11T08:08:52.819Z,31.10
2018-05-11T08:11:19.672Z,30.90
2018-05-11T08:13:47.030Z,31.60
2018-05-11T08:16:14.912Z,32.70
2018-05-11T08:18:42.059Z,32.70
2018-05-11T08:21:10.439Z,31.10
2018-05-11T08:23:38.931Z,30.50
2018-05-11T08:26:07.211Z,30.50
2018-05-11T08:28:34.879Z,29.70
2018-05-11T08:31:02.955Z,30.40
2018-05-11T08:33:31.849Z,29.40
2018-05-11T08:36:00.463Z,29.40
2018-05-11T08:38:28.312Z,29.00
2018-05-11T08:40:55.364Z,29.20
2018-05-11T08:43:22.623Z,28.20
2018-05-11T08:45:51.341Z,28.80
2018-05-11T08:48:18.127Z,29.20
2018-05-11T08:50:45.325Z,28.70
2018-05-11T08:53:12.410Z,27.90
2018-05-11T08:55:39.461Z,28.00
2018-05-11T17:25:53.098Z,18.30
2018-05-11T17:28:20.148Z,18.30
2018-05-11T17:30:47.197Z,18.10
2018-05-11T17:33:14.152Z,18.10
2018-05-11T17:35:41.103Z,18.00
2018-05-11T17:38:08.908Z,17.80
2018-05-11T17:40:36.350Z,17.70
2018-05-11T17:43:05.551Z,17.70
2018-05-11T17:45:33.625Z,17.80
2018-05-11T17:48:02.150Z,17.50
2018-05-11T17:50:29.155Z,17.50
2018-05-11T17:52:58.797Z,17.50
2018-05-11T17:55:27.455Z,17.40
2018-05-11T17:57:54.713Z,17.20
2018-05-11T18:00:21.772Z,17.20
2018-05-11T18:02:48.716Z,17.20
2018-05-11T18:05:15.666Z,17.10
2018-05-11T18:07:42.621Z,17.00
2018-05-11T18:10:09.507Z,17.00
2018-05-11T18:12:36.728Z,16.90
2018-05-11T18:15:03.677Z,16.90
2018-05-11T18:17:30.626Z,16.70
2018-05-11T18:19:57.583Z,16.70
2018-05-11T18:22:24.532Z,16.60
2018-05-11T18:24:51.376Z,16.60
2018-05-11T19:21:47.992Z,13.50
2018-05-11T19:24:15.451Z,13.40
2018-05-11T19:26:42.196Z,13.20
2018-05-11T19:29:09.149Z,13.20
2018-05-11T19:31:36.518Z,13.10
2018-05-11T19:34:03.458Z,13.00
2018-05-11T19:36:30.324Z,13.10
2018-05-11T19:38:57.160Z,13.00
2018-05-11T19:41:24.108Z,12.80
2018-05-11T19:43:50.954Z,12.70
2018-05-11T19:46:17.911Z,12.60
2018-05-11T19:48:44.757Z,12.60
2018-05-11T19:51:11.914Z,12.50
2018-05-11T19:53:38.763Z,12.40
2018-05-11T19:56:05.875Z,12.30
2018-05-11T19:58:32.664Z,12.20
2018-05-11T20:00:59.509Z,12.00
2018-05-11T20:03:26.358Z,12.00
2018-05-11T20:05:53.262Z,11.90
2018-05-11T20:08:20.676Z,11.90
2018-05-11T20:10:47.540Z,11.90
2018-05-11T20:13:16.955Z,11.70
2018-05-11T20:15:43.980Z,11.60
2018-05-11T20:18:10.891Z,11.70
2018-05-11T20:20:38.364Z,11.60
2018-05-11T20:23:05.240Z,11.50
2018-05-11T20:25:32.907Z,11.40
2018-05-11T20:28:00.066Z,11.40
2018-05-11T20:30:27.325Z,11.40
2018-05-11T20:32:54.378Z,11.20
2018-05-11T20:35:21.227Z,11.20
2018-05-11T20:37:48.180Z,11.30
2018-05-11T20:40:15.022Z,11.30
2018-05-11T20:42:41.872Z,11.30
2018-05-11T20:45:08.825Z,11.20
2018-05-11T20:47:35.879Z,11.10
2018-05-11T20:50:02.929Z,11.00
2018-05-11T20:52:29.882Z,10.90
2018-05-11T20:54:56.633Z,10.90
2018-05-11T20:57:23.682Z,10.90
2018-05-11T20:59:50.835Z,10.80
2018-05-11T21:02:18.407Z,10.70
2018-05-11T21:04:47.068Z,10.60
2018-05-11T21:07:13.843Z,10.60
2018-05-11T21:09:40.685Z,10.50
2018-05-11T21:12:07.437Z,10.50
2018-05-11T21:14:35.153Z,10.40
2018-05-11T21:17:02.767Z,10.30
2018-05-11T21:19:30.230Z,10.30
2018-05-11T21:21:57.792Z,10.30
2018-05-11T21:24:24.746Z,10.30
2018-05-11T21:26:52.004Z,10.30
2018-05-11T21:29:22.387Z,10.20
2018-05-11T21:31:49.590Z,10.00
2018-05-11T21:34:16.437Z,10.00
2018-05-11T21:36:44.105Z,9.90
2018-05-11T21:39:11.056Z,9.90
2018-05-11T21:41:38.110Z,9.90
2018-05-11T21:44:05.064Z,9.80
2018-05-11T21:46:33.572Z,9.70
2018-05-11T21:49:01.725Z,9.70
2018-05-11T21:51:28.583Z,9.60
2018-05-11T21:53:55.525Z,9.40
2018-05-11T21:56:22.580Z,9.40
2018-05-11T21:58:49.529Z,9.30
2018-05-11T22:01:16.587Z,9.30
2018-05-11T22:03:45.068Z,9.20
2018-05-11T22:06:13.557Z,9.20
2018-05-11T22:08:40.607Z,9.10
2018-05-11T22:11:07.559Z,9.10
2018-05-11T22:13:35.552Z,9.10
2018-05-11T22:16:02.893Z,9.10
2018-05-11T22:18:29.946Z,9.10
2018-05-11T22:20:56.898Z,9.10
2018-05-11T22:23:24.057Z,9.10
2018-05-11T22:25:53.050Z,9.00
2018-05-11T22:28:21.740Z,9.00
2018-05-11T22:30:48.795Z,9.00
2018-05-11T22:33:15.950Z,8.90
2018-05-11T22:35:43.002Z,8.90
2018-05-11T22:38:09.860Z,8.80
2018-05-11T22:40:36.912Z,8.80
2018-05-11T22:43:07.283Z,8.70
2018-05-11T22:45:38.479Z,8.60
2018-05-11T22:48:10.919Z,8.60
2018-05-11T22:50:38.733Z,8.50
2018-05-11T22:53:08.750Z,8.40
2018-05-11T22:55:38.273Z,8.40
2018-05-11T22:58:05.768Z,8.30
2018-05-11T23:00:43.371Z,8.20
2018-05-11T23:03:12.724Z,8.20
2018-05-11T23:05:39.879Z,8.20
2018-05-11T23:08:06.954Z,8.20
2018-05-11T23:10:34.611Z,8.10
2018-05-11T23:13:01.859Z,8.10
2018-05-11T23:15:28.704Z,8.00
2018-05-11T23:17:55.554Z,8.00
2018-05-11T23:20:22.403Z,8.10
2018-05-11T23:22:51.048Z,8.00
2018-05-11T23:25:18.057Z,8.00
2018-05-11T23:27:45.752Z,7.90
2018-05-11T23:30:12.897Z,7.90
2018-05-11T23:32:39.718Z,7.90
2018-05-11T23:35:08.633Z,7.80
2018-05-11T23:37:35.563Z,7.70
2018-05-11T23:40:02.411Z,7.70
2018-05-11T23:42:29.161Z,7.60
2018-05-11T23:44:56.210Z,7.60
2018-05-11T23:47:24.289Z,7.50
2018-05-11T23:49:51.263Z,7.50
2018-05-11T23:52:18.060Z,7.40
2018-05-11T23:54:45.040Z,7.40
2018-05-11T23:57:12.399Z,7.40
2018-05-11T23:59:39.352Z,7.40
